Terminal Aerodrome Forecast
Issued by NWS St Louis, MO

Home | Current Version | Previous Version | Text Only | Print | Product List | Glossary On
Versions: 1 2 3 4 5 6 7 8 9 10 11 12 13 14 15 16 17 18 19 20 21 22 23 24 25 26
000
FTUS43 KLSX 240500
TAFSTL
TAF
KSTL 240520Z 2406/2512 VRB04KT P6SM BKN035
     FM241000 VRB04KT 5SM BR BKN015
     FM241500 24006KT P6SM FEW015 SCT030
     FM242100 22008KT P6SM FEW040 SCT250
     FM250000 18005KT P6SM SCT250
     FM250900 26005KT P6SM FEW050 SCT250=

USA.gov is the U.S. government's official web portal to all federal, state and local government web resources and services.